sensor_id;sensor_type;location;lat;lon;timestamp;temperature;humidity
758;DHT22;363;48.764;9.172;2023-05-14T00:01:11;13.10;99.90
758;DHT22;363;48.764;9.172;2023-05-14T00:03:37;13.20;99.90
758;DHT22;363;48.764;9.172;2023-05-14T00:06:05;13.20;99.90
758;DHT22;363;48.764;9.172;2023-05-14T00:08:32;13.20;99.90
758;DHT22;363;48.764;9.172;2023-05-14T00:10:58;13.30;99.90
758;DHT22;363;48.764;9.172;2023-05-14T00:13:24;13.20;99.90
758;DHT22;363;48.764;9.172;2023-05-14T00:15:50;13.40;99.90
758;DHT22;363;48.764;9.172;2023-05-14T00:18:15;13.20;99.90
758;DHT22;363;48.764;9.172;2023-05-14T00:20:41;13.40;99.90
758;DHT22;363;48.764;9.172;2023-05-14T00:23:07;13.00;99.90
758;DHT22;363;48.764;9.172;2023-05-14T00:25:32;13.00;99.90
758;DHT22;363;48.764;9.172;2023-05-14T00:27:58;12.90;99.90
758;DHT22;363;48.764;9.172;2023-05-14T00:30:23;13.10;99.90
758;DHT22;363;48.764;9.172;2023-05-14T00:32:49;13.10;99.90
758;DHT22;363;48.764;9.172;2023-05-14T00:35:14;13.10;99.90
758;DHT22;363;48.764;9.172;2023-05-14T00:37:40;12.90;99.90
758;DHT22;363;48.764;9.172;2023-05-14T00:40:06;13.40;99.90
758;DHT22;363;48.764;9.172;2023-05-14T00:42:33;13.20;99.90
758;DHT22;363;48.764;9.172;2023-05-14T00:44:58;13.30;99.90
758;DHT22;363;48.764;9.172;2023-05-14T00:47:24;13.30;99.90
758;DHT22;363;48.764;9.172;2023-05-14T00:49:50;13.30;99.90
758;DHT22;363;48.764;9.172;2023-05-14T00:52:16;13.20;99.90
758;DHT22;363;48.764;9.172;2023-05-14T00:54:44;13.20;99.90
758;DHT22;363;48.764;9.172;2023-05-14T00:57:11;13.40;99.90
758;DHT22;363;48.764;9.172;2023-05-14T00:59:36;13.40;99.90
758;DHT22;363;48.764;9.172;2023-05-14T01:02:05;13.60;99.90
758;DHT22;363;48.764;9.172;2023-05-14T01:04:30;13.00;99.90
758;DHT22;363;48.764;9.172;2023-05-14T01:09:47;12.60;99.90
758;DHT22;363;48.764;9.172;2023-05-14T01:15:10;13.10;99.90
758;DHT22;363;48.764;9.172;2023-05-14T01:17:41;13.10;99.90
758;DHT22;363;48.764;9.172;2023-05-14T01:20:08;13.00;99.90
758;DHT22;363;48.764;9.172;2023-05-14T01:22:33;13.00;99.90
758;DHT22;363;48.764;9.172;2023-05-14T01:24:59;12.90;99.90
758;DHT22;363;48.764;9.172;2023-05-14T01:27:48;12.70;99.90
758;DHT22;363;48.764;9.172;2023-05-14T01:32:57;12.40;99.90
758;DHT22;363;48.764;9.172;2023-05-14T01:35:26;12.20;99.90
758;DHT22;363;48.764;9.172;2023-05-14T01:38:01;12.20;99.90
758;DHT22;363;48.764;9.172;2023-05-14T01:40:28;12.20;99.90
758;DHT22;363;48.764;9.172;2023-05-14T01:42:54;12.40;99.90
758;DHT22;363;48.764;9.172;2023-05-14T01:45:21;12.30;99.90
758;DHT22;363;48.764;9.172;2023-05-14T01:47:48;12.40;99.90
758;DHT22;363;48.764;9.172;2023-05-14T01:50:13;12.40;99.90
758;DHT22;363;48.764;9.172;2023-05-14T01:52:39;12.10;99.90
758;DHT22;363;48.764;9.172;2023-05-14T01:55:05;12.20;99.90
758;DHT22;363;48.764;9.172;2023-05-14T01:57:31;12.30;99.90
758;DHT22;363;48.764;9.172;2023-05-14T01:59:57;12.30;99.90
758;DHT22;363;48.764;9.172;2023-05-14T02:02:22;12.30;99.90
758;DHT22;363;48.764;9.172;2023-05-14T02:04:48;12.20;99.90
758;DHT22;363;48.764;9.172;2023-05-14T02:07:14;12.10;99.90
758;DHT22;363;48.764;9.172;2023-05-14T02:09:40;12.30;99.90
758;DHT22;363;48.764;9.172;2023-05-14T02:12:09;12.20;99.90
758;DHT22;363;48.764;9.172;2023-05-14T02:14:35;12.40;99.90
758;DHT22;363;48.764;9.172;2023-05-14T02:17:01;12.10;99.90
758;DHT22;363;48.764;9.172;2023-05-14T02:19:28;12.40;99.90
758;DHT22;363;48.764;9.172;2023-05-14T02:21:54;12.20;99.90
758;DHT22;363;48.764;9.172;2023-05-14T02:24:19;12.10;99.90
758;DHT22;363;48.764;9.172;2023-05-14T02:26:45;12.30;99.90
758;DHT22;363;48.764;9.172;2023-05-14T02:29:10;12.00;99.90
758;DHT22;363;48.764;9.172;2023-05-14T02:31:36;12.20;99.90
758;DHT22;363;48.764;9.172;2023-05-14T02:34:03;12.10;99.90
758;DHT22;363;48.764;9.172;2023-05-14T02:36:28;12.00;99.90
758;DHT22;363;48.764;9.172;2023-05-14T02:38:54;12.00;99.90
758;DHT22;363;48.764;9.172;2023-05-14T02:41:19;12.10;99.90
758;DHT22;363;48.764;9.172;2023-05-14T02:43:45;12.20;99.90
758;DHT22;363;48.764;9.172;2023-05-14T02:46:12;12.30;99.90
758;DHT22;363;48.764;9.172;2023-05-14T02:48:38;12.40;99.90
758;DHT22;363;48.764;9.172;2023-05-14T02:51:03;12.30;99.90
758;DHT22;363;48.764;9.172;2023-05-14T02:53:29;12.10;99.90
758;DHT22;363;48.764;9.172;2023-05-14T02:55:54;12.40;99.90
758;DHT22;363;48.764;9.172;2023-05-14T02:58:20;12.60;99.90
758;DHT22;363;48.764;9.172;2023-05-14T03:00:46;12.30;99.90
758;DHT22;363;48.764;9.172;2023-05-14T03:03:11;12.40;99.90
758;DHT22;363;48.764;9.172;2023-05-14T03:05:37;12.50;99.90
758;DHT22;363;48.764;9.172;2023-05-14T03:08:02;12.50;99.90
758;DHT22;363;48.764;9.172;2023-05-14T03:10:28;12.50;99.90
758;DHT22;363;48.764;9.172;2023-05-14T03:12:54;12.50;99.90
758;DHT22;363;48.764;9.172;2023-05-14T03:15:19;12.50;99.90
758;DHT22;363;48.764;9.172;2023-05-14T03:17:45;12.70;99.90
758;DHT22;363;48.764;9.172;2023-05-14T03:20:11;12.90;99.90
758;DHT22;363;48.764;9.172;2023-05-14T03:22:37;12.70;99.90
758;DHT22;363;48.764;9.172;2023-05-14T03:25:03;12.60;99.90
758;DHT22;363;48.764;9.172;2023-05-14T03:27:28;12.90;99.90
758;DHT22;363;48.764;9.172;2023-05-14T03:29:54;12.70;99.90
758;DHT22;363;48.764;9.172;2023-05-14T03:32:19;12.60;99.90
758;DHT22;363;48.764;9.172;2023-05-14T03:34:45;13.00;99.90
758;DHT22;363;48.764;9.172;2023-05-14T03:37:11;12.70;99.90
758;DHT22;363;48.764;9.172;2023-05-14T03:39:37;12.40;99.90
758;DHT22;363;48.764;9.172;2023-05-14T03:42:02;12.30;99.90
758;DHT22;363;48.764;9.172;2023-05-14T03:44:28;12.70;99.90
758;DHT22;363;48.764;9.172;2023-05-14T03:46:54;13.00;99.90
758;DHT22;363;48.764;9.172;2023-05-14T03:49:20;12.40;99.90
758;DHT22;363;48.764;9.172;2023-05-14T03:51:45;12.60;99.90
758;DHT22;363;48.764;9.172;2023-05-14T03:54:11;12.70;99.90
758;DHT22;363;48.764;9.172;2023-05-14T03:56:36;12.60;99.90
758;DHT22;363;48.764;9.172;2023-05-14T03:59:02;13.00;99.90
758;DHT22;363;48.764;9.172;2023-05-14T04:01:28;12.70;99.90
758;DHT22;363;48.764;9.172;2023-05-14T04:03:53;12.60;99.90
758;DHT22;363;48.764;9.172;2023-05-14T04:06:19;12.60;99.90
758;DHT22;363;48.764;9.172;2023-05-14T04:08:45;12.80;99.90
758;DHT22;363;48.764;9.172;2023-05-14T04:11:10;12.50;99.90
758;DHT22;363;48.764;9.172;2023-05-14T04:13:36;12.60;99.90
758;DHT22;363;48.764;9.172;2023-05-14T04:16:01;12.50;99.90
758;DHT22;363;48.764;9.172;2023-05-14T04:18:27;12.60;99.90
758;DHT22;363;48.764;9.172;2023-05-14T04:20:52;12.50;99.90
758;DHT22;363;48.764;9.172;2023-05-14T04:23:18;12.80;99.90
758;DHT22;363;48.764;9.172;2023-05-14T04:25:44;12.80;99.90
758;DHT22;363;48.764;9.172;2023-05-14T04:28:09;12.60;99.90
758;DHT22;363;48.764;9.172;2023-05-14T04:30:35;12.60;99.90
758;DHT22;363;48.764;9.172;2023-05-14T04:33:00;12.70;99.90
758;DHT22;363;48.764;9.172;2023-05-14T04:35:26;12.70;99.90
758;DHT22;363;48.764;9.172;2023-05-14T04:37:52;12.70;99.90
758;DHT22;363;48.764;9.172;2023-05-14T04:40:18;12.80;99.90
758;DHT22;363;48.764;9.172;2023-05-14T04:42:43;12.70;99.90
758;DHT22;363;48.764;9.172;2023-05-14T04:45:09;13.10;99.90
758;DHT22;363;48.764;9.172;2023-05-14T04:47:35;13.00;99.90
758;DHT22;363;48.764;9.172;2023-05-14T04:50:01;12.90;99.90
758;DHT22;363;48.764;9.172;2023-05-14T04:52:27;12.90;99.90
758;DHT22;363;48.764;9.172;2023-05-14T04:54:52;13.20;99.90
758;DHT22;363;48.764;9.172;2023-05-14T04:57:18;13.00;99.90
758;DHT22;363;48.764;9.172;2023-05-14T05:02:10;13.30;99.90
758;DHT22;363;48.764;9.172;2023-05-14T05:04:35;12.60;99.90
758;DHT22;363;48.764;9.172;2023-05-14T05:07:01;13.00;99.90
758;DHT22;363;48.764;9.172;2023-05-14T05:09:27;13.00;99.90
758;DHT22;363;48.764;9.172;2023-05-14T05:11:52;13.10;99.90
758;DHT22;363;48.764;9.172;2023-05-14T05:14:18;12.90;99.90
758;DHT22;363;48.764;9.172;2023-05-14T05:16:43;13.00;99.90
758;DHT22;363;48.764;9.172;2023-05-14T05:19:09;12.90;99.90
758;DHT22;363;48.764;9.172;2023-05-14T05:21:35;13.10;99.90
758;DHT22;363;48.764;9.172;2023-05-14T05:24:01;13.10;99.90
758;DHT22;363;48.764;9.172;2023-05-14T05:26:26;13.10;99.90
758;DHT22;363;48.764;9.172;2023-05-14T05:28:52;12.90;99.90
758;DHT22;363;48.764;9.172;2023-05-14T05:31:18;13.10;99.90
758;DHT22;363;48.764;9.172;2023-05-14T05:33:43;13.10;99.90
758;DHT22;363;48.764;9.172;2023-05-14T05:36:09;13.10;99.90
758;DHT22;363;48.764;9.172;2023-05-14T05:38:35;13.30;99.90
758;DHT22;363;48.764;9.172;2023-05-14T05:41:00;13.30;99.90
758;DHT22;363;48.764;9.172;2023-05-14T05:43:26;13.20;99.90
758;DHT22;363;48.764;9.172;2023-05-14T05:45:53;13.10;99.90
758;DHT22;363;48.764;9.172;2023-05-14T05:48:18;13.00;99.90
758;DHT22;363;48.764;9.172;2023-05-14T05:50:46;13.50;99.90
758;DHT22;363;48.764;9.172;2023-05-14T05:53:13;13.40;99.90
758;DHT22;363;48.764;9.172;2023-05-14T05:55:41;13.30;99.90
758;DHT22;363;48.764;9.172;2023-05-14T05:58:07;13.40;99.90
758;DHT22;363;48.764;9.172;2023-05-14T06:00:32;13.20;99.90
758;DHT22;363;48.764;9.172;2023-05-14T06:02:58;13.40;99.90
758;DHT22;363;48.764;9.172;2023-05-14T06:05:24;13.70;99.90
758;DHT22;363;48.764;9.172;2023-05-14T06:07:50;13.30;99.90
758;DHT22;363;48.764;9.172;2023-05-14T06:10:16;13.90;99.90
758;DHT22;363;48.764;9.172;2023-05-14T06:12:41;13.80;99.90
758;DHT22;363;48.764;9.172;2023-05-14T06:15:07;13.70;99.90
758;DHT22;363;48.764;9.172;2023-05-14T06:17:33;13.60;99.90
758;DHT22;363;48.764;9.172;2023-05-14T06:19:58;13.50;99.90
758;DHT22;363;48.764;9.172;2023-05-14T06:22:24;13.70;99.90
758;DHT22;363;48.764;9.172;2023-05-14T06:24:50;13.60;99.90
758;DHT22;363;48.764;9.172;2023-05-14T06:27:15;13.60;99.90
758;DHT22;363;48.764;9.172;2023-05-14T06:29:41;13.80;99.90
758;DHT22;363;48.764;9.172;2023-05-14T06:32:07;14.00;99.90
758;DHT22;363;48.764;9.172;2023-05-14T06:34:33;13.60;99.90
758;DHT22;363;48.764;9.172;2023-05-14T06:36:58;13.60;99.90
758;DHT22;363;48.764;9.172;2023-05-14T06:39:26;13.70;99.90
758;DHT22;363;48.764;9.172;2023-05-14T06:41:52;14.10;99.90
758;DHT22;363;48.764;9.172;2023-05-14T06:44:18;13.90;99.90
758;DHT22;363;48.764;9.172;2023-05-14T06:46:44;13.90;99.90
758;DHT22;363;48.764;9.172;2023-05-14T06:49:09;13.90;99.90
758;DHT22;363;48.764;9.172;2023-05-14T06:51:35;13.90;99.90
758;DHT22;363;48.764;9.172;2023-05-14T06:54:00;13.90;99.90
758;DHT22;363;48.764;9.172;2023-05-14T06:56:26;14.00;99.90
758;DHT22;363;48.764;9.172;2023-05-14T06:58:51;13.90;99.90
758;DHT22;363;48.764;9.172;2023-05-14T07:01:17;13.60;99.90
758;DHT22;363;48.764;9.172;2023-05-14T07:03:43;14.10;99.90
758;DHT22;363;48.764;9.172;2023-05-14T07:06:08;14.40;99.90
758;DHT22;363;48.764;9.172;2023-05-14T07:08:34;14.70;99.90
758;DHT22;363;48.764;9.172;2023-05-14T07:11:00;14.30;99.90
758;DHT22;363;48.764;9.172;2023-05-14T07:13:26;14.40;99.90
758;DHT22;363;48.764;9.172;2023-05-14T07:15:52;14.30;99.90
758;DHT22;363;48.764;9.172;2023-05-14T07:18:20;14.40;99.90
758;DHT22;363;48.764;9.172;2023-05-14T07:20:46;14.40;99.90
758;DHT22;363;48.764;9.172;2023-05-14T07:23:11;14.80;99.90
758;DHT22;363;48.764;9.172;2023-05-14T07:25:37;14.90;99.90
758;DHT22;363;48.764;9.172;2023-05-14T07:28:03;15.00;99.90
758;DHT22;363;48.764;9.172;2023-05-14T07:30:28;15.00;99.90
758;DHT22;363;48.764;9.172;2023-05-14T07:32:54;15.00;99.90
758;DHT22;363;48.764;9.172;2023-05-14T07:35:19;15.00;99.90
758;DHT22;363;48.764;9.172;2023-05-14T07:37:45;15.30;99.90
758;DHT22;363;48.764;9.172;2023-05-14T07:40:11;15.20;99.90
758;DHT22;363;48.764;9.172;2023-05-14T07:42:37;15.40;99.90
758;DHT22;363;48.764;9.172;2023-05-14T07:45:04;15.50;99.90
758;DHT22;363;48.764;9.172;2023-05-14T07:47:32;16.30;99.90
758;DHT22;363;48.764;9.172;2023-05-14T07:49:58;15.90;99.90
758;DHT22;363;48.764;9.172;2023-05-14T07:52:24;15.90;99.90
758;DHT22;363;48.764;9.172;2023-05-14T07:54:50;16.20;99.90
758;DHT22;363;48.764;9.172;2023-05-14T07:57:16;16.60;99.90
758;DHT22;363;48.764;9.172;2023-05-14T07:59:42;16.80;99.90
758;DHT22;363;48.764;9.172;2023-05-14T08:02:08;17.10;99.90
758;DHT22;363;48.764;9.172;2023-05-14T08:04:37;17.20;99.90
758;DHT22;363;48.764;9.172;2023-05-14T08:07:03;17.00;99.90
758;DHT22;363;48.764;9.172;2023-05-14T08:09:29;17.00;99.90
758;DHT22;363;48.764;9.172;2023-05-14T08:11:54;17.60;99.90
758;DHT22;363;48.764;9.172;2023-05-14T08:14:20;18.30;99.90
758;DHT22;363;48.764;9.172;2023-05-14T08:16:46;19.00;99.90
758;DHT22;363;48.764;9.172;2023-05-14T08:19:12;19.40;99.20
758;DHT22;363;48.764;9.172;2023-05-14T08:21:38;20.60;97.60
758;DHT22;363;48.764;9.172;2023-05-14T08:24:03;23.10;94.10
758;DHT22;363;48.764;9.172;2023-05-14T08:26:29;23.40;90.70
758;DHT22;363;48.764;9.172;2023-05-14T08:28:55;22.80;90.40
758;DHT22;363;48.764;9.172;2023-05-14T08:31:20;21.70;91.20
758;DHT22;363;48.764;9.172;2023-05-14T08:33:46;21.40;92.40
758;DHT22;363;48.764;9.172;2023-05-14T08:36:11;21.30;92.50
758;DHT22;363;48.764;9.172;2023-05-14T08:38:37;21.40;92.70
758;DHT22;363;48.764;9.172;2023-05-14T08:41:04;21.40;92.70
758;DHT22;363;48.764;9.172;2023-05-14T08:43:48;22.50;92.30
758;DHT22;363;48.764;9.172;2023-05-14T08:46:21;22.60;91.20
758;DHT22;363;48.764;9.172;2023-05-14T08:48:53;22.70;91.00
758;DHT22;363;48.764;9.172;2023-05-14T08:51:19;22.30;90.60
758;DHT22;363;48.764;9.172;2023-05-14T08:53:46;22.80;90.80
758;DHT22;363;48.764;9.172;2023-05-14T08:56:12;22.40;89.00
758;DHT22;363;48.764;9.172;2023-05-14T08:58:38;22.20;89.60
758;DHT22;363;48.764;9.172;2023-05-14T09:01:04;22.30;90.10
758;DHT22;363;48.764;9.172;2023-05-14T09:03:30;22.70;90.00
758;DHT22;363;48.764;9.172;2023-05-14T09:05:57;22.60;89.10
758;DHT22;363;48.764;9.172;2023-05-14T09:08:23;22.50;90.10
758;DHT22;363;48.764;9.172;2023-05-14T09:10:49;22.70;89.20
758;DHT22;363;48.764;9.172;2023-05-14T09:13:14;22.50;88.60
758;DHT22;363;48.764;9.172;2023-05-14T09:15:40;22.30;89.60
758;DHT22;363;48.764;9.172;2023-05-14T09:18:06;22.40;90.00
758;DHT22;363;48.764;9.172;2023-05-14T09:20:32;21.60;90.70
758;DHT22;363;48.764;9.172;2023-05-14T09:22:58;21.50;90.40
758;DHT22;363;48.764;9.172;2023-05-14T09:25:26;21.80;90.90
758;DHT22;363;48.764;9.172;2023-05-14T09:27:55;22.20;89.70
758;DHT22;363;48.764;9.172;2023-05-14T09:30:21;23.10;88.20
758;DHT22;363;48.764;9.172;2023-05-14T09:32:46;23.70;84.60
758;DHT22;363;48.764;9.172;2023-05-14T09:35:16;24.80;81.20
758;DHT22;363;48.764;9.172;2023-05-14T09:37:46;25.50;79.50
758;DHT22;363;48.764;9.172;2023-05-14T09:40:12;26.50;75.80
758;DHT22;363;48.764;9.172;2023-05-14T09:42:39;26.10;74.80
758;DHT22;363;48.764;9.172;2023-05-14T09:45:06;25.70;74.50
758;DHT22;363;48.764;9.172;2023-05-14T09:47:32;24.70;76.70
758;DHT22;363;48.764;9.172;2023-05-14T09:49:58;23.10;80.60
758;DHT22;363;48.764;9.172;2023-05-14T09:52:24;22.70;82.60
758;DHT22;363;48.764;9.172;2023-05-14T09:54:54;22.40;83.90
758;DHT22;363;48.764;9.172;2023-05-14T09:57:19;21.70;84.60
758;DHT22;363;48.764;9.172;2023-05-14T09:59:45;21.30;86.40
758;DHT22;363;48.764;9.172;2023-05-14T10:02:27;20.80;88.60
758;DHT22;363;48.764;9.172;2023-05-14T10:05:01;20.10;89.70
758;DHT22;363;48.764;9.172;2023-05-14T10:07:35;20.10;90.30
758;DHT22;363;48.764;9.172;2023-05-14T10:10:05;19.80;91.40
758;DHT22;363;48.764;9.172;2023-05-14T10:12:37;19.50;92.20
758;DHT22;363;48.764;9.172;2023-05-14T10:15:08;19.40;92.70
758;DHT22;363;48.764;9.172;2023-05-14T10:17:40;19.30;92.60
758;DHT22;363;48.764;9.172;2023-05-14T10:20:10;19.10;92.80
758;DHT22;363;48.764;9.172;2023-05-14T10:22:37;18.90;93.00
758;DHT22;363;48.764;9.172;2023-05-14T10:25:03;19.00;93.60
758;DHT22;363;48.764;9.172;2023-05-14T10:27:29;19.10;93.30
758;DHT22;363;48.764;9.172;2023-05-14T10:29:55;19.10;93.00
758;DHT22;363;48.764;9.172;2023-05-14T10:32:22;19.10;92.70
758;DHT22;363;48.764;9.172;2023-05-14T10:34:50;19.20;93.30
758;DHT22;363;48.764;9.172;2023-05-14T10:37:18;19.30;92.50
758;DHT22;363;48.764;9.172;2023-05-14T10:39:46;19.30;92.70
758;DHT22;363;48.764;9.172;2023-05-14T10:42:55;19.60;92.60
758;DHT22;363;48.764;9.172;2023-05-14T10:45:06;19.70;92.10
758;DHT22;363;48.764;9.172;2023-05-14T10:47:39;20.30;91.80
758;DHT22;363;48.764;9.172;2023-05-14T10:50:08;19.90;91.60
758;DHT22;363;48.764;9.172;2023-05-14T10:52:35;19.90;92.20
758;DHT22;363;48.764;9.172;2023-05-14T10:55:05;20.50;91.70
758;DHT22;363;48.764;9.172;2023-05-14T10:57:38;20.20;91.20
758;DHT22;363;48.764;9.172;2023-05-14T11:00:05;20.60;91.30
758;DHT22;363;48.764;9.172;2023-05-14T11:02:39;21.30;90.40
758;DHT22;363;48.764;9.172;2023-05-14T11:05:11;21.40;90.00
758;DHT22;363;48.764;9.172;2023-05-14T11:07:42;21.40;89.60
758;DHT22;363;48.764;9.172;2023-05-14T11:10:16;21.40;90.00
758;DHT22;363;48.764;9.172;2023-05-14T11:12:44;21.00;90.10
758;DHT22;363;48.764;9.172;2023-05-14T11:15:13;20.90;90.00
758;DHT22;363;48.764;9.172;2023-05-14T11:17:41;20.30;91.00
758;DHT22;363;48.764;9.172;2023-05-14T11:20:07;19.80;91.60
758;DHT22;363;48.764;9.172;2023-05-14T11:22:34;20.10;92.30
758;DHT22;363;48.764;9.172;2023-05-14T11:25:00;19.70;92.90
758;DHT22;363;48.764;9.172;2023-05-14T11:27:26;19.40;93.20
758;DHT22;363;48.764;9.172;2023-05-14T11:29:52;19.40;93.80
758;DHT22;363;48.764;9.172;2023-05-14T11:32:20;19.30;93.80
758;DHT22;363;48.764;9.172;2023-05-14T11:34:46;19.20;94.20
758;DHT22;363;48.764;9.172;2023-05-14T11:37:13;19.40;93.90
758;DHT22;363;48.764;9.172;2023-05-14T11:39:45;20.10;92.70
758;DHT22;363;48.764;9.172;2023-05-14T11:42:12;21.60;91.10
758;DHT22;363;48.764;9.172;2023-05-14T11:44:39;22.40;88.00
758;DHT22;363;48.764;9.172;2023-05-14T11:47:05;22.80;86.90
758;DHT22;363;48.764;9.172;2023-05-14T11:49:31;23.80;83.10
758;DHT22;363;48.764;9.172;2023-05-14T11:52:04;24.20;81.20
758;DHT22;363;48.764;9.172;2023-05-14T11:54:31;23.30;82.70
758;DHT22;363;48.764;9.172;2023-05-14T11:56:59;23.00;83.90
758;DHT22;363;48.764;9.172;2023-05-14T11:59:29;22.30;85.90
758;DHT22;363;48.764;9.172;2023-05-14T12:01:56;21.90;86.00
758;DHT22;363;48.764;9.172;2023-05-14T12:04:21;21.10;88.90
758;DHT22;363;48.764;9.172;2023-05-14T12:06:51;21.00;88.80
758;DHT22;363;48.764;9.172;2023-05-14T12:09:21;20.90;90.40
758;DHT22;363;48.764;9.172;2023-05-14T12:11:48;21.00;90.80
758;DHT22;363;48.764;9.172;2023-05-14T12:14:22;20.90;91.20
758;DHT22;363;48.764;9.172;2023-05-14T12:16:49;20.90;90.30
758;DHT22;363;48.764;9.172;2023-05-14T12:19:16;20.80;90.00
758;DHT22;363;48.764;9.172;2023-05-14T12:21:44;20.70;90.40
758;DHT22;363;48.764;9.172;2023-05-14T12:24:17;20.90;90.50
758;DHT22;363;48.764;9.172;2023-05-14T12:26:45;21.00;90.60
758;DHT22;363;48.764;9.172;2023-05-14T12:29:12;21.20;90.70
758;DHT22;363;48.764;9.172;2023-05-14T12:31:45;21.10;90.50
758;DHT22;363;48.764;9.172;2023-05-14T12:34:12;21.30;90.20
758;DHT22;363;48.764;9.172;2023-05-14T12:36:37;20.60;88.90
758;DHT22;363;48.764;9.172;2023-05-14T12:39:03;20.50;90.20
758;DHT22;363;48.764;9.172;2023-05-14T12:41:30;20.00;90.30
758;DHT22;363;48.764;9.172;2023-05-14T12:43:56;19.90;90.90
758;DHT22;363;48.764;9.172;2023-05-14T12:46:22;20.00;91.10
758;DHT22;363;48.764;9.172;2023-05-14T12:48:48;20.10;90.50
758;DHT22;363;48.764;9.172;2023-05-14T12:51:14;20.30;90.30
758;DHT22;363;48.764;9.172;2023-05-14T12:53:42;20.20;89.10
758;DHT22;363;48.764;9.172;2023-05-14T12:56:07;20.60;90.50
758;DHT22;363;48.764;9.172;2023-05-14T12:58:33;20.10;90.30
758;DHT22;363;48.764;9.172;2023-05-14T13:00:58;20.00;91.20
758;DHT22;363;48.764;9.172;2023-05-14T13:03:24;20.00;91.40
758;DHT22;363;48.764;9.172;2023-05-14T13:05:51;20.00;90.80
758;DHT22;363;48.764;9.172;2023-05-14T13:08:17;20.10;91.00
758;DHT22;363;48.764;9.172;2023-05-14T13:10:43;20.10;90.20
758;DHT22;363;48.764;9.172;2023-05-14T13:13:10;20.40;90.00
758;DHT22;363;48.764;9.172;2023-05-14T13:15:36;20.40;90.40
758;DHT22;363;48.764;9.172;2023-05-14T13:18:01;20.90;90.20
758;DHT22;363;48.764;9.172;2023-05-14T13:20:27;20.80;90.10
758;DHT22;363;48.764;9.172;2023-05-14T13:22:55;20.90;88.70
758;DHT22;363;48.764;9.172;2023-05-14T13:25:21;21.00;87.40
758;DHT22;363;48.764;9.172;2023-05-14T13:27:46;21.20;86.70
758;DHT22;363;48.764;9.172;2023-05-14T13:30:16;20.60;87.40
758;DHT22;363;48.764;9.172;2023-05-14T13:32:42;20.40;88.00
758;DHT22;363;48.764;9.172;2023-05-14T13:35:08;20.10;89.60
758;DHT22;363;48.764;9.172;2023-05-14T13:37:34;20.10;90.40
758;DHT22;363;48.764;9.172;2023-05-14T13:39:59;19.90;90.80
758;DHT22;363;48.764;9.172;2023-05-14T13:42:25;19.90;91.20
758;DHT22;363;48.764;9.172;2023-05-14T13:44:51;19.60;91.80
758;DHT22;363;48.764;9.172;2023-05-14T13:47:17;19.60;91.80
758;DHT22;363;48.764;9.172;2023-05-14T13:49:42;19.90;91.90
758;DHT22;363;48.764;9.172;2023-05-14T13:52:08;19.70;92.60
758;DHT22;363;48.764;9.172;2023-05-14T13:54:33;19.70;93.10
758;DHT22;363;48.764;9.172;2023-05-14T13:56:59;19.60;92.80
758;DHT22;363;48.764;9.172;2023-05-14T13:59:25;19.80;92.00
758;DHT22;363;48.764;9.172;2023-05-14T14:01:50;20.20;91.00
758;DHT22;363;48.764;9.172;2023-05-14T14:04:16;19.80;90.90
758;DHT22;363;48.764;9.172;2023-05-14T14:06:42;19.80;90.50
758;DHT22;363;48.764;9.172;2023-05-14T14:09:08;19.60;90.90
758;DHT22;363;48.764;9.172;2023-05-14T14:11:34;19.50;91.40
758;DHT22;363;48.764;9.172;2023-05-14T14:13:59;19.40;91.90
758;DHT22;363;48.764;9.172;2023-05-14T14:16:25;19.60;91.70
758;DHT22;363;48.764;9.172;2023-05-14T14:18:51;19.40;91.90
758;DHT22;363;48.764;9.172;2023-05-14T14:21:16;19.10;91.70
758;DHT22;363;48.764;9.172;2023-05-14T14:23:44;19.30;92.20
758;DHT22;363;48.764;9.172;2023-05-14T14:26:10;19.20;92.00
758;DHT22;363;48.764;9.172;2023-05-14T14:28:36;19.20;92.20
758;DHT22;363;48.764;9.172;2023-05-14T14:31:01;19.10;91.60
758;DHT22;363;48.764;9.172;2023-05-14T14:33:27;19.10;91.20
758;DHT22;363;48.764;9.172;2023-05-14T14:35:53;19.00;90.60
758;DHT22;363;48.764;9.172;2023-05-14T14:38:19;19.00;91.00
758;DHT22;363;48.764;9.172;2023-05-14T14:40:44;19.10;90.70
758;DHT22;363;48.764;9.172;2023-05-14T14:43:11;19.10;89.70
758;DHT22;363;48.764;9.172;2023-05-14T14:45:36;19.10;89.80
758;DHT22;363;48.764;9.172;2023-05-14T14:50:46;19.20;90.90
758;DHT22;363;48.764;9.172;2023-05-14T14:53:12;19.00;90.50
758;DHT22;363;48.764;9.172;2023-05-14T14:55:38;19.00;90.50
758;DHT22;363;48.764;9.172;2023-05-14T14:58:03;19.20;90.70
758;DHT22;363;48.764;9.172;2023-05-14T15:00:29;19.00;90.10
758;DHT22;363;48.764;9.172;2023-05-14T15:02:54;19.40;90.00
758;DHT22;363;48.764;9.172;2023-05-14T15:05:20;19.90;89.90
758;DHT22;363;48.764;9.172;2023-05-14T15:07:45;19.90;88.70
758;DHT22;363;48.764;9.172;2023-05-14T15:10:11;20.00;88.00
758;DHT22;363;48.764;9.172;2023-05-14T15:12:37;20.10;86.00
758;DHT22;363;48.764;9.172;2023-05-14T15:15:02;20.30;85.40
758;DHT22;363;48.764;9.172;2023-05-14T15:17:28;20.50;83.50
758;DHT22;363;48.764;9.172;2023-05-14T15:19:54;20.60;83.50
758;DHT22;363;48.764;9.172;2023-05-14T15:22:20;20.40;83.80
758;DHT22;363;48.764;9.172;2023-05-14T15:24:45;20.50;84.20
758;DHT22;363;48.764;9.172;2023-05-14T15:27:11;20.80;85.90
758;DHT22;363;48.764;9.172;2023-05-14T15:29:37;20.90;85.80
758;DHT22;363;48.764;9.172;2023-05-14T15:32:02;20.60;87.00
758;DHT22;363;48.764;9.172;2023-05-14T15:34:28;20.30;87.60
758;DHT22;363;48.764;9.172;2023-05-14T15:36:54;20.00;88.90
758;DHT22;363;48.764;9.172;2023-05-14T15:39:20;19.60;90.00
758;DHT22;363;48.764;9.172;2023-05-14T15:41:45;19.30;91.40
758;DHT22;363;48.764;9.172;2023-05-14T15:44:11;18.90;92.50
758;DHT22;363;48.764;9.172;2023-05-14T15:46:36;18.70;93.60
758;DHT22;363;48.764;9.172;2023-05-14T15:49:02;18.50;94.90
758;DHT22;363;48.764;9.172;2023-05-14T15:51:28;18.60;96.80
758;DHT22;363;48.764;9.172;2023-05-14T15:53:53;18.20;97.10
758;DHT22;363;48.764;9.172;2023-05-14T15:56:20;18.00;98.10
758;DHT22;363;48.764;9.172;2023-05-14T15:58:47;17.60;99.50
758;DHT22;363;48.764;9.172;2023-05-14T16:01:13;17.70;99.10
758;DHT22;363;48.764;9.172;2023-05-14T16:03:38;17.70;99.90
758;DHT22;363;48.764;9.172;2023-05-14T16:06:04;18.20;99.90
758;DHT22;363;48.764;9.172;2023-05-14T16:08:30;17.60;99.90
758;DHT22;363;48.764;9.172;2023-05-14T16:10:55;17.60;99.90
758;DHT22;363;48.764;9.172;2023-05-14T16:13:21;17.60;99.90
758;DHT22;363;48.764;9.172;2023-05-14T16:15:46;17.70;99.90
758;DHT22;363;48.764;9.172;2023-05-14T16:18:12;17.90;99.90
758;DHT22;363;48.764;9.172;2023-05-14T16:20:38;18.00;99.90
758;DHT22;363;48.764;9.172;2023-05-14T16:23:03;18.00;99.90
758;DHT22;363;48.764;9.172;2023-05-14T16:25:29;18.30;99.90
758;DHT22;363;48.764;9.172;2023-05-14T16:27:56;18.20;99.90
758;DHT22;363;48.764;9.172;2023-05-14T16:30:21;18.20;99.90
758;DHT22;363;48.764;9.172;2023-05-14T16:32:47;18.40;99.90
758;DHT22;363;48.764;9.172;2023-05-14T16:35:14;18.50;99.90
758;DHT22;363;48.764;9.172;2023-05-14T16:37:41;18.60;99.90
758;DHT22;363;48.764;9.172;2023-05-14T16:40:07;18.60;99.90
758;DHT22;363;48.764;9.172;2023-05-14T16:42:36;18.50;99.40